WetterOnline ( https://www.wetteronline.de )

Wetter aktuell Reschenpass

Aktuelles Wetter: Reschenpass (1461m)

6-stündlich | Neueste Meldungen
Ortszeit Temperatur Wetter
Fr, 05.06. 14:00 13.0° C bewölkt
Fr, 05.06. 8:00 6.4° C wolkig
Fr, 05.06. 2:00 6.0° C leichter Regen
Do, 04.06. 20:00 8.6° C leichter Regen
Do, 04.06. 14:00 9.6° C leichter Regen
Do, 04.06. 8:00 8.8° C bedeckt
Do, 04.06. 2:00 10.4° C wolkig
Mi, 03.06. 20:00 15.4° C leicht bewölkt
Ortszeit Temperatur Wetter
Fr, 05.06. 18:00 14.4° C bewölkt
Fr, 05.06. 17:55 14° C leicht bewölkt
Fr, 05.06. 17:00 14.4° C wolkig
Fr, 05.06. 16:55 14° C leicht bewölkt
Fr, 05.06. 16:00 15.0° C wolkig
Fr, 05.06. 15:55 15° C leicht bewölkt
Fr, 05.06. 15:00 13.6° C wolkig
Fr, 05.06. 14:55 14° C leicht bewölkt
Fr, 05.06. 14:00 13.0° C bewölkt
Ortszeit Relative Feuchte Sichtweite
Fr, 05.06. 14:00 49% 15 km
Fr, 05.06. 8:00 88% 20 km
Fr, 05.06. 2:00 94% 3.0 km
Do, 04.06. 20:00 100% 6 km
Do, 04.06. 14:00 98% 7 km
Do, 04.06. 8:00 97% 5.0 km
Do, 04.06. 2:00 89% 12 km
Mi, 03.06. 20:00 58% 15 km
Ortszeit Relative Feuchte Sichtweite
Fr, 05.06. 18:00 40% 12 km
Fr, 05.06. 17:55 41% >10 km
Fr, 05.06. 17:00 40% 15 km
Fr, 05.06. 16:55 41% >10 km
Fr, 05.06. 16:00 43% 15 km
Fr, 05.06. 15:55 44% >10 km
Fr, 05.06. 15:00 42% 15 km
Fr, 05.06. 14:55 41% >10 km
Fr, 05.06. 14:00 49% 15 km
Ortszeit Niederschlagsmenge Niederschlagsart
Fr, 05.06. 14:00 0.0 l/m2 in 6 Std. -
Fr, 05.06. 8:00 7 l/m2 in 12 Std. Regen
Fr, 05.06. 2:00 7 l/m2 in 6 Std. Regen
Do, 04.06. 20:00 1 l/m2 in 12 Std. Regen
Do, 04.06. 14:00 0.4 l/m2 in 6 Std. Regen
Do, 04.06. 8:00 0.1 l/m2 in 12 Std. Regen
Do, 04.06. 2:00 0.0 l/m2 in 6 Std. -
Mi, 03.06. 20:00 0.0 l/m2 in 12 Std. -
Ortszeit Niederschlagsmenge Niederschlagsart
Fr, 05.06. 18:00 keine Meldung -
Fr, 05.06. 17:55 keine Meldung -
Fr, 05.06. 17:00 keine Meldung -
Fr, 05.06. 16:55 keine Meldung -
Fr, 05.06. 16:00 keine Meldung -
Fr, 05.06. 15:55 keine Meldung -
Fr, 05.06. 15:00 keine Meldung -
Fr, 05.06. 14:55 keine Meldung -
Fr, 05.06. 14:00 keine Meldung -
Ortszeit Stärke Spitze Richtung
km/h Bft. km/h Grad Sektor
Fr, 05.06. 14:00 13 3 - 30° NO
Fr, 05.06. 8:00 7 2 - 40° NO
Fr, 05.06. 2:00 9 2 - 20° N
Do, 04.06. 20:00 13 3 - 190° S
Do, 04.06. 14:00 15 3 - 170° S
Do, 04.06. 8:00 15 3 - 150° SO
Do, 04.06. 2:00 9 2 - 220° SW
Mi, 03.06. 20:00 17 3 - 160° S
Ortszeit Stärke Spitze Richtung
km/h Bft. km/h Grad Sektor
Fr, 05.06. 18:00 4 1 - 50° NO
Fr, 05.06. 17:55 4 1 - 50° NO
Fr, 05.06. 17:00 9 2 - 330° NW
Fr, 05.06. 16:55 9 2 - 330° NW
Fr, 05.06. 16:00 13 3 - 10° N
Fr, 05.06. 15:55 13 3 - 10° N
Fr, 05.06. 15:00 13 3 - 350° N
Fr, 05.06. 14:55 13 3 - 350° N
Fr, 05.06. 14:00 13 3 - 30° NO
Ortszeit Untergrenze Bedeckung Gattung
total tief tief mittel hoch
Fr, 05.06. 14:00 600 m 8/8 3/8 Cu Ac -
Fr, 05.06. 8:00 750 m 6/8 6/8 Sc - -
Fr, 05.06. 2:00 450 m 8/8 8/8 St - -
Do, 04.06. 20:00 300 m 8/8 8/8 St - -
Do, 04.06. 14:00 300 m 8/8 8/8 St - -
Do, 04.06. 8:00 240 m 8/8 8/8 Sc - -
Do, 04.06. 2:00 600 m 5/8 2/8 Cu Ac -
Mi, 03.06. 20:00 750 m 5/8 2/8 Cu Ac -
Ortszeit Bedeckungsgrad in Achtel und Wolkenuntergrenze
Fr, 05.06. 18:00 3(750m) 6(1800m)
Fr, 05.06. 17:55 3-4(750m)
Fr, 05.06. 17:00 4(750m) 4(1800m)
Fr, 05.06. 16:55 3-4(750m)
Fr, 05.06. 16:00 3(600m) 4(1800m)
Fr, 05.06. 15:55 3-4(600m)
Fr, 05.06. 15:00 2(600m) 4(1800m)
Fr, 05.06. 14:55 1-2(600m)
Fr, 05.06. 14:00 1(600m) 3(750m) 5(1800m)
Ortszeit Stationsdruck (hPa) Tendenz (hPa in 3 Std.)
Fr, 05.06. 14:00 840 + 0,9
Fr, 05.06. 8:00 838 + 0,3
Fr, 05.06. 2:00 838 + 0,4
Do, 04.06. 20:00 838 - 0,6
Do, 04.06. 14:00 840 - 0,8
Do, 04.06. 8:00 841 - 1,0
Do, 04.06. 2:00 845 + 0,2
Mi, 03.06. 20:00 844 - 0,5
Ortszeit Stationsdruck (hPa) Tendenz (hPa in 3 Std.)
Fr, 05.06. 18:00 840 + 0,1
Fr, 05.06. 17:55 - keine Meldung
Fr, 05.06. 17:00 840 0,0
Fr, 05.06. 16:55 - keine Meldung
Fr, 05.06. 16:00 840 + 0,6
Fr, 05.06. 15:55 - keine Meldung
Fr, 05.06. 15:00 840 + 0,6
Fr, 05.06. 14:55 - keine Meldung
Fr, 05.06. 14:00 840 + 0,9
Ortszeit Schneehöhe (cm)
Fr, 05.06. 14:00 -
Fr, 05.06. 8:00 0
Fr, 05.06. 2:00 -
Do, 04.06. 20:00 -
Do, 04.06. 14:00 -
Do, 04.06. 8:00 0
Do, 04.06. 2:00 -
Mi, 03.06. 20:00 -
Ortszeit Schneehöhe (cm)
Fr, 05.06. 18:00 -
Fr, 05.06. 17:55 -
Fr, 05.06. 17:00 -
Fr, 05.06. 16:55 -
Fr, 05.06. 16:00 -
Fr, 05.06. 15:55 -
Fr, 05.06. 15:00 -
Fr, 05.06. 14:55 -
Fr, 05.06. 14:00 -
Link zu dieser Seite / Seite empfehlen

Das Wetter in ...